Date,TemperatureHighF,TemperatureAvgF,TemperatureLowF,DewpointHighF,DewpointAvgF,DewpointLowF,HumidityHigh,HumidityAvg,HumidityLow,PressureMaxIn,PressureMinIn,WindSpeedMaxMPH,WindSpeedAvgMPH,GustSpeedMaxMPH,PrecipitationSumIn
2013-1-1,15.4,4.7,-1.2,9.0,-27.5,-99.9,84,52,55,29.69,29.48,11,-176,13,0.00
2013-1-2,6.5,0.3,-6.3,-8.2,-80.3,-99.9,65,12,47,29.96,29.59,9,-656,22,0.00
2013-1-3,4.3,-0.2,-5.2,-6.4,-78.9,-99.9,72,16,59,30.04,29.78,6,-686,7,0.00
2013-1-4,22.2,9.2,-10.3,18.5,-30.8,-99.9,89,51,71,29.83,29.53,4,-312,10,0.00
2013-1-5,21.3,8.3,-11.2,18.6,-11.2,-99.9,90,62,46,30.24,29.57,8,-78,16,0.00
2013-1-6,12.4,1.0,-13.0,4.5,-8.2,-99.9,79,69,62,30.25,30.01,2,0,10,0.00
2013-1-7,3.7,-5.1,-15.6,-6.1,-16.9,-99.9,72,61,40,30.42,30.13,6,-19,11,0.00
2013-1-8,32.5,9.9,-10.9,24.0,-25.4,-99.9,74,48,61,30.28,30.05,9,-269,11,0.00
2013-1-9,33.5,12.1,23.2,32.7,-56.5,-99.9,97,31,75,30.37,29.66,3,-489,5,0.00
2013-1-10,35.9,18.7,20.0,35.3,-25.8,-99.9,100,51,66,30.48,29.66,8,-189,21,0.00
2013-1-11,27.6,18.3,11.4,14.9,0.4,-99.9,86,63,51,30.55,30.28,2,-104,5,0.00
2013-1-12,33.5,10.2,24.2,29.2,-58.3,-99.9,84,24,53,30.28,29.99,6,-552,7,0.00
2013-1-13,45.4,20.3,36.6,41.8,-41.6,-99.9,100,37,81,30.06,29.84,5,-436,5,0.51
2013-1-14,54.8,28.9,22.9,52.5,-5.2,-99.9,100,52,52,30.18,29.68,11,-252,16,0.10
2013-1-15,22.0,12.9,-0.2,5.4,2.2,-5.4,81,63,48,30.32,30.18,4,1,17,0.00
2013-1-16,27.2,11.3,1.7,17.2,4.7,-2.8,82,75,59,30.23,29.92,6,1,11,0.00
2013-1-17,0.3,-7.2,-14.6,-16.4,-19.3,-23.3,64,55,43,30.20,30.06,3,1,8,0.00
2013-1-18,1.9,-9.4,-23.4,-15.0,-22.7,-32.6,66,53,32,30.29,30.19,5,1,16,0.00
2013-1-19,18.6,8.2,-4.8,11.8,0.5,-15.8,86,71,51,30.25,29.97,3,0,5,0.00
2013-1-20,33.1,20.8,1.8,32.6,15.6,-10.0,98,80,55,30.00,29.27,8,3,27,0.00
2013-1-21,5.8,-1.2,-11.0,-9.9,-14.2,-19.8,67,54,40,30.02,29.65,6,3,11,0.00
2013-1-22,1.8,-12.9,-26.6,-16.0,-24.1,-36.5,69,57,35,29.99,29.84,5,1,8,0.00
2013-1-23,-5.4,-12.4,-20.8,-20.9,-25.2,-30.7,62,52,37,29.95,29.82,6,2,13,0.00
2013-1-24,-3.5,-6.8,-8.9,-14.7,-19.4,-21.3,60,53,46,29.97,29.80,7,3,14,0.00
2013-1-25,6.9,-0.2,-7.9,-6.9,-11.3,-17.6,69,59,45,30.10,29.97,8,4,13,0.00
2013-1-26,8.6,2.1,-4.1,-5.2,-8.4,-12.1,70,61,49,30.07,29.98,6,3,14,0.00
2013-1-27,10.4,5.0,-4.3,-1.5,-6.0,-13.4,69,60,47,30.36,30.04,7,4,18,0.00
2013-1-28,19.7,3.3,-8.2,-4.8,-10.1,-15.7,75,56,23,30.38,30.13,2,0,5,0.01
2013-1-29,28.7,14.2,-3.1,12.0,3.9,-9.6,79,64,49,30.22,30.10,3,1,10,0.00
2013-1-30,49.6,36.9,22.4,49.6,34.3,9.9,100,91,56,30.11,29.31,10,4,21,0.03
2013-1-31,53.8,24.4,47.3,53.8,-27.1,-99.9,100,49,100,29.29,28.55,3,-514,7,0.29
2013-2-1,-200.0,0.0,200.0,-99.9,-99.9,-99.9,0,0,100,29.90,29.15,0,0,0,0.00
2013-2-2,-200.0,0.0,200.0,-99.9,-99.9,-99.9,0,0,100,30.07,29.91,0,-298,0,0.00
2013-2-3,-200.0,0.0,200.0,-99.9,-99.9,-99.9,0,0,100,30.08,29.72,0,-999,0,0.00
2013-2-4,-200.0,0.0,200.0,-99.9,-99.9,-99.9,0,0,100,29.70,29.35,0,-999,0,0.00
2013-2-5,-200.0,0.0,200.0,-99.9,-99.9,-99.9,0,0,100,29.81,29.54,0,-999,0,0.00
2013-2-6,-200.0,0.0,200.0,-99.9,-99.9,-99.9,0,0,100,29.92,29.81,0,0,0,0.00
2013-2-7,-200.0,0.0,200.0,-99.9,-99.9,-99.9,0,0,100,30.54,30.13,0,0,0,0.00
2013-2-8,-200.0,0.0,200.0,-99.9,-99.9,-99.9,0,0,100,30.57,30.29,0,0,0,0.00
2013-2-9,-200.0,0.0,200.0,-99.9,-99.9,-99.9,0,0,100,30.28,30.04,0,0,0,0.00
2013-2-10,-200.0,0.0,200.0,-99.9,-99.9,-99.9,0,0,100,30.26,30.08,0,0,0,0.00
2013-2-11,-200.0,0.0,200.0,-99.9,-99.9,-99.9,0,0,100,30.23,29.53,0,0,0,0.00
2013-2-12,-200.0,0.0,200.0,-99.9,-99.9,-99.9,0,0,100,29.59,29.37,0,0,0,0.00
2013-2-13,29.7,23.6,23.8,25.6,7.1,-99.9,89,73,67,29.78,29.60,5,1,12,0.00
2013-2-14,32.8,11.6,13.8,21.1,-54.0,-99.9,91,26,49,29.98,29.75,157,-495,157,0.09
2013-2-15,-200.0,0.0,200.0,-99.9,-99.9,-99.9,0,0,100,30.00,29.94,0,-736,0,0.00
2013-2-16,-200.0,0.0,200.0,-99.9,-99.9,-99.9,0,0,100,29.92,29.84,0,-255,0,0.00
2013-2-17,-200.0,0.0,200.0,-99.9,-99.9,-99.9,0,0,100,29.81,29.64,0,-25,0,0.00
2013-2-18,21.0,15.0,10.9,9.5,2.1,-99.9,79,61,50,29.81,29.05,13,9,35,0.00
2013-2-19,33.1,21.4,10.7,15.5,4.7,-99.9,74,55,40,30.05,29.82,8,-38,18,0.00
2013-2-20,34.7,28.5,24.8,34.7,15.9,-99.9,100,82,64,29.82,29.39,6,-68,7,0.00
2013-2-21,35.2,3.9,26.3,33.2,-91.9,-99.9,98,6,77,30.21,29.45,6,-749,6,0.00
2013-2-22,34.3,19.1,9.9,21.3,-8.8,-99.9,90,57,54,30.42,30.17,4,-216,7,0.00
2013-2-23,27.9,16.7,4.8,22.2,11.8,-0.3,89,81,71,30.40,30.11,2,0,5,0.00
2013-2-24,30.4,22.9,15.7,25.2,10.0,-99.9,91,75,68,30.11,29.93,4,-85,4,0.00
2013-2-25,37.6,18.5,4.8,19.4,0.5,-99.9,87,63,28,30.24,29.97,2,-62,4,0.00
2013-2-26,40.1,19.2,-0.6,20.7,10.0,-6.6,89,70,26,30.40,30.25,2,0,3,0.00
2013-2-27,41.6,24.4,6.5,19.9,11.8,1.6,88,63,27,30.33,30.00,4,1,4,0.00
2013-2-28,30.0,26.7,24.7,29.4,15.0,-99.9,100,77,60,29.99,29.75,2,-41,3,0.00
2013-3-1,36.3,24.2,27.8,29.7,3.0,-99.9,96,70,76,29.77,29.65,3,-180,7,0.00
2013-3-2,37.6,33.8,29.1,34.5,31.5,26.0,100,91,85,29.68,29.62,4,2,7,0.00
2013-3-3,40.3,35.3,33.1,38.9,24.2,-99.9,100,86,88,29.63,29.45,3,-40,4,0.00
2013-3-4,41.9,19.0,35.5,35.2,-33.6,-99.9,90,41,73,29.81,29.45,4,-498,18,0.00
2013-3-5,39.6,34.7,31.2,30.9,25.8,-99.9,86,74,65,30.30,29.81,4,-19,8,0.00
2013-3-6,36.6,30.3,27.3,24.6,19.8,15.6,78,65,53,30.45,30.31,3,1,9,0.00
2013-3-7,32.1,28.0,26.0,21.3,18.7,16.1,75,68,58,30.45,30.35,4,1,11,0.00
2013-3-8,42.6,29.6,20.2,21.6,18.7,14.8,88,66,36,30.39,30.33,5,1,12,0.00
2013-3-9,44.6,29.3,19.7,23.2,19.1,-99.9,94,70,36,30.44,30.34,3,-10,6,0.00
2013-3-10,36.3,29.1,19.1,23.4,20.8,16.1,97,73,51,30.45,30.19,5,2,10,0.00
2013-3-11,45.1,37.5,31.6,31.4,27.6,21.9,79,68,53,30.20,30.04,7,3,13,0.00
2013-3-12,43.4,39.8,35.8,41.8,36.0,-99.9,96,88,77,30.07,29.82,7,-3,14,0.30
2013-3-13,45.5,41.2,34.5,44.4,39.1,26.1,98,92,71,29.82,29.55,6,2,14,0.15
2013-3-14,38.9,32.3,22.1,27.9,22.8,15.0,87,69,47,29.65,29.48,8,2,15,0.00
2013-3-15,25.9,18.7,10.1,15.3,8.8,5.9,89,66,47,29.69,29.56,5,2,10,0.00
2013-3-16,26.1,16.1,6.0,9.4,4.9,-1.2,91,64,32,29.85,29.63,8,2,17,0.00
2013-3-17,17.1,10.3,4.5,9.2,0.4,-8.5,85,65,43,30.21,29.84,8,3,22,0.00
2013-3-18,25.1,11.6,0.8,1.4,-3.5,-8.8,79,52,29,30.36,30.20,8,3,20,0.00
2013-3-19,29.9,16.6,0.5,10.5,3.7,-2.7,87,60,34,30.36,29.89,5,1,13,0.00
2013-3-20,27.9,21.9,15.4,25.4,19.4,10.3,94,90,62,29.89,29.38,4,2,10,0.00
2013-3-21,35.5,25.6,15.9,26.5,20.4,13.7,94,82,54,29.70,29.46,6,2,13,0.08
2013-3-22,35.5,22.2,6.7,26.4,18.2,4.1,95,85,62,29.66,29.33,8,2,15,0.11
2013-3-23,36.3,30.0,25.5,33.1,27.3,23.8,94,89,83,29.52,29.23,6,3,13,0.21
2013-3-24,43.2,31.6,20.0,33.1,26.5,18.3,95,82,63,29.80,29.52,7,2,13,0.27
2013-3-25,40.5,31.8,20.5,28.4,24.5,19.0,98,76,51,29.79,29.71,4,1,10,0.03
2013-3-26,40.8,31.5,19.6,31.8,26.8,17.9,97,84,63,29.70,29.60,8,2,10,0.01
2013-3-27,47.3,38.5,32.7,37.0,34.5,31.8,98,86,63,29.88,29.66,4,1,10,0.21
2013-3-28,50.5,39.1,29.3,33.8,28.8,23.7,98,71,36,29.91,29.85,6,2,11,0.00
2013-3-29,48.4,35.7,23.6,32.4,23.7,11.6,98,68,26,29.96,29.88,6,2,14,0.00
2013-3-30,47.4,31.7,17.2,23.3,17.1,11.2,97,62,24,30.05,29.95,5,1,11,0.00
2013-3-31,50.7,27.6,14.5,22.2,16.3,12.3,93,69,25,30.08,29.87,5,1,9,0.00
2013-4-1,39.3,35.8,31.6,35.9,30.6,20.5,96,83,47,29.85,29.44,4,1,11,0.30
2013-4-2,30.9,23.1,16.3,25.5,12.5,5.9,81,64,42,29.62,29.45,7,4,20,0.00
2013-4-3,32.2,21.5,10.0,20.5,10.9,1.7,81,64,48,29.79,29.58,7,4,24,0.00
2013-4-4,44.4,32.6,21.5,27.5,13.2,5.7,82,48,24,30.00,29.79,9,4,12,0.00
2013-4-5,40.6,35.3,28.7,33.7,30.1,24.5,94,82,58,29.86,29.65,4,2,13,0.00
2013-4-6,29.4,24.0,17.7,23.7,9.1,3.8,82,54,35,30.27,29.73,10,5,17,0.00
2013-4-7,36.7,26.2,9.3,31.3,14.4,4.5,89,62,45,30.30,29.86,6,2,9,0.00
2013-4-8,41.9,35.1,27.5,33.5,29.6,25.2,94,81,59,30.15,29.81,6,2,12,0.00
2013-4-9,38.2,32.5,24.8,35.7,30.3,23.4,97,92,80,30.16,29.93,2,0,4,0.07
2013-4-10,43.1,36.7,30.4,34.5,30.6,20.9,98,80,57,29.94,29.86,7,2,9,0.02
2013-4-11,36.0,30.7,24.4,19.8,13.9,10.1,62,50,37,30.19,29.88,9,4,12,0.00
2013-4-12,43.5,32.6,21.0,31.5,20.4,15.6,96,63,37,30.27,30.06,3,1,5,0.00
2013-4-13,38.8,34.2,30.6,35.3,32.5,29.6,98,94,86,30.04,29.85,2,0,3,0.43
2013-4-14,40.8,34.6,31.5,35.4,32.7,30.7,98,93,79,30.18,29.91,2,0,6,0.15
2013-4-15,51.3,39.5,26.5,33.4,29.4,25.8,99,71,40,30.37,30.18,3,1,6,0.00
2013-4-16,46.9,41.3,35.9,40.6,36.2,29.7,95,82,65,30.32,29.73,8,4,20,0.18
2013-4-17,46.3,40.6,32.8,42.1,27.8,19.4,94,63,36,30.34,29.75,9,5,16,0.04
2013-4-18,46.0,35.2,21.8,33.3,23.0,17.6,93,65,33,30.48,29.98,7,1,8,0.08
2013-4-19,67.3,53.6,38.7,54.5,43.3,28.0,86,68,56,29.95,29.49,8,4,12,0.00
2013-4-20,59.2,45.9,36.8,56.4,40.3,27.4,97,82,52,29.97,29.43,6,3,11,0.36
2013-4-21,39.9,31.5,23.4,31.4,17.3,10.5,84,57,30,30.73,30.01,7,3,10,0.01
2013-4-22,52.7,36.0,17.2,22.1,17.0,14.9,94,53,23,30.84,30.64,5,2,10,0.00
2013-4-23,56.6,42.1,23.7,26.7,19.3,11.2,88,46,17,30.64,30.32,6,2,13,0.00
2013-4-24,55.6,47.0,37.0,50.1,42.3,29.3,99,84,55,30.30,29.70,4,1,7,0.00
2013-4-25,53.2,47.1,30.9,49.5,37.2,26.8,98,72,40,30.31,29.65,8,4,10,0.03
2013-4-26,58.1,40.6,25.3,28.4,25.2,19.4,96,61,22,30.48,30.32,4,1,9,0.00
2013-4-27,61.8,41.9,24.4,31.1,26.1,21.8,95,61,22,30.46,30.28,4,1,7,0.00
2013-4-28,67.5,47.4,27.0,33.4,28.6,25.4,96,57,22,30.35,30.20,4,1,9,0.00
2013-4-29,72.3,52.0,29.7,39.1,31.6,27.5,93,53,20,30.28,30.16,4,1,4,0.00
2013-4-30,74.0,55.7,31.5,42.5,33.8,28.3,88,50,20,30.35,30.24,5,1,14,0.00
2013-5-1,76.8,57.1,36.0,44.1,38.8,31.1,96,58,19,30.45,30.35,3,1,8,0.00
2013-5-2,70.0,54.4,37.6,41.8,35.1,24.1,83,53,20,30.58,30.45,3,1,7,0.00
2013-5-3,71.4,50.5,29.7,35.9,32.7,28.2,96,58,24,30.63,30.40,3,1,5,0.00
2013-5-4,73.9,53.5,30.3,37.9,33.3,28.5,95,53,21,30.43,30.21,3,1,7,0.00
2013-5-5,81.3,59.2,36.3,41.2,36.0,31.8,86,48,19,30.22,30.06,6,2,10,0.00
2013-5-6,83.5,66.7,47.1,44.5,40.4,36.2,72,41,19,30.12,29.94,7,3,14,0.00
2013-5-7,83.6,65.9,49.1,42.4,39.2,32.6,73,43,17,30.09,29.90,6,2,10,0.00
2013-5-8,83.1,64.5,41.1,47.9,42.4,38.1,89,50,22,30.21,30.04,6,2,11,0.00
2013-5-9,68.4,60.9,55.7,61.0,55.8,49.6,92,84,63,30.07,29.85,5,2,7,0.09
2013-5-10,59.5,55.5,43.7,57.0,51.1,41.8,97,86,65,30.01,29.84,6,2,12,0.01
2013-5-11,54.2,49.9,44.3,53.6,48.8,42.7,99,96,90,30.00,29.60,4,1,12,0.37
2013-5-12,60.1,53.6,49.7,54.7,50.7,47.9,99,90,64,29.65,29.49,2,1,4,0.63
2013-5-13,49.8,43.9,36.0,42.6,32.9,28.8,93,67,46,29.95,29.58,6,2,13,0.03
2013-5-14,51.9,41.0,28.0,34.9,31.2,27.2,98,71,46,30.01,29.94,5,1,7,0.00
2013-5-15,64.1,47.4,29.9,35.5,31.2,27.4,94,59,26,29.95,29.65,5,2,13,0.00
2013-5-16,54.0,47.0,40.2,51.9,45.1,38.1,98,93,81,29.75,29.52,3,2,6,0.28
2013-5-17,51.3,45.2,40.3,41.3,38.1,35.0,93,77,56,30.15,29.75,6,4,10,0.01
2013-5-18,56.2,46.1,29.2,35.1,33.1,28.5,98,64,42,30.37,30.29,3,1,6,0.00
2013-5-19,63.6,45.9,26.5,38.0,30.5,25.5,98,63,26,30.43,30.18,3,1,5,0.00
2013-5-20,52.4,49.2,44.1,51.9,46.4,40.3,99,91,64,30.18,29.93,5,2,7,0.40
2013-5-21,62.0,49.7,42.7,52.3,47.0,42.4,100,92,62,30.04,29.98,2,0,4,0.01
2013-5-22,53.5,48.9,42.4,51.0,47.7,41.9,100,96,87,30.02,29.90,3,1,10,0.05
2013-5-23,60.5,53.7,47.4,60.1,53.0,46.9,99,97,90,29.90,29.71,4,2,7,0.55
2013-5-24,60.5,50.7,44.5,60.2,50.2,43.7,99,98,96,29.97,29.69,4,2,8,0.60
2013-5-25,44.2,42.2,40.2,43.4,41.4,39.7,99,97,92,30.07,29.89,5,2,14,1.09
2013-5-26,54.1,44.6,40.6,50.6,43.9,39.8,100,97,88,29.88,29.72,4,2,14,0.59
2013-5-27,51.4,43.7,35.2,41.0,38.7,34.2,97,84,65,30.11,29.80,7,3,14,0.00
2013-5-28,67.7,48.4,28.9,43.0,35.5,28.4,100,68,28,30.24,30.12,4,1,9,0.00
2013-5-29,73.5,55.0,34.6,54.7,43.1,33.8,99,71,30,30.22,29.95,7,2,11,0.25
2013-5-30,72.0,60.2,53.1,62.5,57.3,52.6,99,91,71,29.94,29.89,3,0,8,0.07
2013-5-31,86.0,67.3,53.8,71.5,62.7,53.2,100,87,50,29.93,29.73,5,1,8,0.52
2013-6-1,75.4,63.0,49.6,69.0,60.3,49.1,100,92,75,29.85,29.77,3,1,4,0.28
2013-6-2,74.9,59.5,49.8,69.7,58.6,49.3,100,97,80,29.77,29.61,2,0,13,1.64
2013-6-3,77.1,67.2,53.9,64.3,57.8,46.2,100,75,42,29.69,29.61,4,2,10,0.00
2013-6-4,59.2,52.5,44.5,46.5,41.9,35.3,96,69,43,29.92,29.64,7,3,12,0.00
2013-6-5,63.8,52.3,40.4,39.4,35.0,27.0,83,55,26,30.08,29.93,6,3,12,0.00
2013-6-6,68.5,52.2,33.4,47.4,37.0,32.4,98,62,28,30.20,30.08,5,1,8,0.00
2013-6-7,66.5,55.9,44.0,54.5,48.5,41.5,95,78,55,30.16,30.05,2,0,5,0.00
2013-6-8,56.5,52.2,47.8,53.9,50.5,45.5,98,94,86,30.06,29.85,3,1,5,0.69
2013-6-9,55.6,50.7,46.2,52.5,49.1,45.7,99,94,89,30.13,29.99,1,0,4,0.10
2013-6-10,77.0,58.3,39.1,56.9,49.2,38.8,100,76,38,30.17,29.99,4,1,10,0.00
2013-6-11,67.9,60.4,46.3,59.4,54.7,46.0,100,83,61,29.99,29.74,2,0,5,0.04
2013-6-12,69.0,59.8,47.9,57.0,47.2,37.3,100,66,38,29.78,29.69,4,1,5,0.07
2013-6-13,75.7,57.6,37.4,52.1,43.4,36.3,98,65,28,29.83,29.69,3,0,5,0.00
2013-6-14,75.4,56.5,44.0,62.5,51.6,43.4,99,86,47,29.71,29.60,3,0,9,0.45
2013-6-15,70.2,56.7,43.7,54.2,46.0,40.7,100,72,36,29.75,29.65,6,2,14,0.02
2013-6-16,64.4,51.5,36.6,51.0,41.1,33.0,98,72,31,29.87,29.75,4,1,6,0.36
2013-6-17,62.7,54.9,48.9,59.1,53.7,48.4,100,96,85,29.78,29.72,2,0,4,0.14
2013-6-18,64.4,54.5,44.9,53.9,49.8,43.8,100,85,58,29.93,29.78,4,1,8,0.05
2013-6-19,69.0,54.2,37.6,50.8,45.1,37.1,100,75,41,30.07,29.92,4,1,6,0.00
2013-6-20,75.4,61.8,40.2,50.5,44.7,39.5,100,59,31,30.18,30.08,4,1,6,0.00
2013-6-21,74.0,63.0,44.1,55.6,46.9,36.0,95,59,33,30.17,30.09,5,1,8,0.00
2013-6-22,78.3,58.6,37.7,60.7,50.4,36.9,99,77,51,30.17,30.00,4,1,9,0.00
2013-6-23,80.8,66.9,51.1,64.5,59.8,50.3,100,80,52,30.09,29.86,4,1,8,0.00
2013-6-24,82.7,70.9,56.9,67.3,63.3,56.4,100,79,51,29.86,29.68,4,1,9,0.00
2013-6-25,85.6,69.5,56.3,71.3,64.7,55.5,100,86,54,29.75,29.57,4,1,8,0.46
2013-6-26,60.1,56.9,52.6,57.4,54.5,51.5,99,92,82,29.91,29.70,2,0,8,0.21
2013-6-27,55.7,50.9,47.2,54.9,50.2,46.6,99,97,94,29.99,29.86,2,0,4,0.58
2013-6-28,54.2,51.2,48.1,53.8,50.8,47.8,100,99,96,29.98,29.68,2,0,7,0.99
2013-6-29,63.6,58.1,52.3,63.4,58.0,52.3,100,100,98,29.68,29.56,1,0,3,0.83
2013-6-30,74.6,66.0,57.2,66.6,61.9,56.4,100,88,65,29.89,29.63,4,1,9,0.02
2013-7-1,74.4,63.5,53.6,63.4,54.1,42.2,100,76,34,30.18,29.90,4,1,10,0.00
2013-7-2,75.2,60.8,48.9,56.0,50.9,46.7,98,74,40,30.29,30.16,4,1,6,0.00
2013-7-3,82.8,68.4,53.4,68.2,60.1,51.9,97,77,50,30.17,29.98,3,1,9,0.00
2013-7-4,88.2,76.0,59.8,68.1,64.2,58.9,100,70,43,30.05,29.91,4,1,9,0.00
2013-7-5,88.5,77.8,65.8,70.6,66.4,58.1,96,71,36,29.93,29.85,5,2,10,0.00
2013-7-6,86.8,73.9,61.0,71.3,64.8,60.3,100,76,43,29.91,29.76,3,1,6,0.00
2013-7-7,80.3,72.3,61.2,68.0,59.0,42.3,88,65,32,29.93,29.77,5,1,8,0.00
2013-7-8,77.1,63.5,51.1,54.6,50.4,46.9,90,65,36,30.08,29.92,3,1,9,0.00
2013-7-9,77.9,62.9,43.9,64.9,54.0,43.1,99,75,49,30.15,30.02,2,0,4,0.00
2013-7-10,75.0,67.6,60.2,66.5,63.2,58.4,97,86,73,30.01,29.68,6,2,13,0.00
2013-7-11,77.2,69.1,53.3,67.9,61.2,50.1,97,78,50,29.99,29.59,5,2,16,0.00
2013-7-12,80.4,61.8,45.9,59.6,49.8,43.8,99,71,28,30.20,29.99,2,0,5,0.00
2013-7-13,87.6,66.1,44.7,64.5,52.3,44.2,100,68,27,30.29,30.16,2,0,6,0.00
2013-7-14,90.9,71.2,50.1,66.9,58.3,49.5,100,70,31,30.22,30.09,2,0,9,0.00
2013-7-15,92.2,74.9,57.8,68.3,62.1,57.0,100,69,34,30.10,29.98,4,1,14,0.00
2013-7-16,86.6,73.3,56.4,65.3,59.9,51.8,99,68,31,30.15,30.05,2,0,6,0.00
2013-7-17,83.8,65.7,51.4,74.8,63.3,50.9,100,92,71,30.13,29.84,3,1,11,1.02
2013-7-18,78.8,68.3,55.6,66.5,58.3,52.0,100,74,43,29.96,29.87,4,1,11,0.02
2013-7-19,80.4,66.8,55.4,74.0,64.8,54.7,100,93,81,29.92,29.43,6,2,11,0.48
2013-7-20,79.1,71.8,56.2,69.6,65.3,52.1,91,80,58,29.70,29.42,5,2,10,0.01
2013-7-21,68.8,57.9,44.7,51.5,46.5,42.3,96,69,40,30.00,29.71,5,2,9,0.00
2013-7-22,77.9,59.4,39.1,59.4,48.4,38.4,100,72,36,30.05,29.88,3,0,7,0.00
2013-7-23,68.7,61.8,54.4,65.7,59.2,53.6,100,92,72,29.88,29.53,2,0,4,0.65
2013-7-24,76.5,63.0,50.0,69.8,59.3,47.5,100,89,52,29.95,29.50,4,1,13,0.18
2013-7-25,73.4,58.4,43.9,58.6,50.7,43.0,100,78,48,30.16,29.95,3,0,5,0.00
2013-7-26,62.5,57.2,51.2,60.7,56.3,50.7,100,97,87,30.16,29.97,2,0,4,0.41
2013-7-27,72.0,62.3,55.3,64.0,59.9,54.9,100,92,73,30.03,29.89,4,1,8,0.14
2013-7-28,77.1,64.7,51.9,66.0,59.2,51.7,100,84,62,30.10,30.02,2,0,5,0.00
2013-7-29,68.6,61.9,58.4,65.9,60.7,57.6,100,96,89,30.06,29.99,1,0,3,0.29
2013-7-30,74.6,64.3,56.2,64.4,61.3,55.8,100,91,62,30.03,29.92,3,0,13,0.21
2013-7-31,78.2,63.3,51.2,61.8,56.9,50.9,100,82,47,29.98,29.92,5,1,7,0.00
2013-8-1,81.0,64.7,48.0,66.3,57.6,47.7,100,81,49,30.00,29.84,3,1,7,0.00
2013-8-2,69.5,61.3,55.2,66.7,59.9,54.6,99,95,87,29.84,29.67,4,1,8,1.34
2013-8-3,66.8,58.4,49.7,63.9,57.0,49.6,100,95,80,29.72,29.63,2,0,3,0.19
2013-8-4,72.6,59.5,48.7,64.1,56.6,48.6,100,91,66,29.74,29.66,4,0,5,0.04
2013-8-5,60.6,55.9,50.7,59.4,55.0,49.0,100,97,88,29.87,29.72,3,1,9,0.60
2013-8-6,75.9,60.1,46.2,59.4,51.8,44.9,98,77,44,30.09,29.88,4,1,6,0.00
2013-8-7,80.4,63.0,45.7,64.9,55.2,45.4,100,79,42,30.17,30.06,3,0,5,0.00
2013-8-8,63.5,59.0,51.9,61.6,57.1,50.8,100,94,83,30.06,29.98,5,1,8,0.12
2013-8-9,71.0,65.2,61.6,68.1,64.6,61.5,100,98,88,30.00,29.68,4,0,5,0.07
2013-8-10,68.7,64.2,52.9,65.1,56.8,48.8,100,79,57,29.82,29.59,7,2,12,0.02
2013-8-11,75.8,61.8,50.6,60.5,52.4,47.7,99,74,44,29.88,29.80,5,2,13,0.03
2013-8-12,74.5,60.1,49.9,63.1,56.1,49.6,100,88,54,29.89,29.81,4,0,7,0.15
2013-8-13,66.6,58.2,51.4,62.9,57.5,51.2,100,97,79,29.88,29.69,1,0,4,0.15
2013-8-14,68.8,60.4,52.1,65.6,57.6,49.6,100,91,70,29.69,29.52,5,2,9,0.27
2013-8-15,72.5,60.2,50.1,57.2,52.5,47.6,97,77,50,29.97,29.67,5,2,9,0.02
2013-8-16,72.6,58.8,46.3,61.1,54.7,45.9,100,88,59,30.15,29.97,3,0,4,0.01
2013-8-17,73.0,58.1,47.3,56.5,51.1,46.9,100,81,46,30.23,30.15,4,1,10,0.00
2013-8-18,80.5,62.5,41.4,61.8,52.6,41.1,100,74,42,30.21,29.89,5,1,12,0.00
2013-8-19,78.3,67.1,56.2,65.0,59.3,54.9,98,77,57,29.89,29.76,6,2,11,0.00
2013-8-20,76.7,64.6,55.7,70.1,62.2,55.1,100,93,74,30.00,29.86,2,0,4,0.03
2013-8-21,85.8,71.3,57.8,69.9,64.2,57.8,100,81,53,30.00,29.82,5,1,7,0.00
2013-8-22,80.0,70.7,61.5,68.9,65.0,59.6,98,83,68,29.82,29.70,4,1,12,0.17
2013-8-23,66.8,58.7,44.7,61.2,52.3,44.2,99,82,50,30.11,29.72,5,2,13,0.27
2013-8-24,75.2,56.7,40.4,54.3,47.3,40.1,100,76,39,30.27,30.12,3,1,5,0.01
2013-8-25,79.4,60.0,41.6,61.6,51.5,41.3,100,78,43,30.31,30.06,2,0,4,0.00
2013-8-26,70.2,61.8,55.6,65.1,59.7,54.5,97,93,83,30.05,29.76,2,0,5,0.05
2013-8-27,76.3,65.6,54.7,63.3,60.2,54.1,100,84,58,29.88,29.79,4,1,4,0.00
2013-8-28,72.9,61.0,52.4,66.5,58.6,52.1,100,92,75,30.11,29.86,1,0,6,0.03
2013-8-29,67.2,56.8,45.0,53.6,50.6,44.2,98,81,59,30.23,30.06,2,0,4,0.00
2013-8-30,70.7,54.8,39.5,62.0,51.6,39.2,100,90,67,30.05,29.74,4,1,7,0.00
2013-8-31,77.4,65.4,56.1,64.7,60.9,56.1,100,87,59,29.82,29.74,3,0,3,0.03
2013-9-1,77.2,66.4,56.9,64.2,60.5,55.5,100,84,52,30.01,29.76,3,1,6,0.03
2013-9-2,62.0,56.8,52.9,58.8,54.9,52.6,100,94,82,30.07,29.86,2,0,6,0.94
2013-9-3,73.1,61.8,53.1,67.9,60.2,53.1,100,95,77,29.85,29.64,1,0,3,0.68
2013-9-4,71.1,58.7,40.9,60.4,54.1,40.1,100,86,64,29.84,29.59,6,1,11,0.01
2013-9-5,59.0,47.6,36.6,44.8,40.3,35.5,100,79,44,30.05,29.84,4,1,9,0.00
2013-9-6,66.9,50.9,33.7,46.9,40.1,33.2,100,71,37,30.07,29.88,4,1,7,0.00
2013-9-7,68.2,58.6,48.3,58.3,53.0,45.4,98,82,67,29.87,29.65,5,1,6,0.07
2013-9-8,58.6,50.8,40.8,58.3,46.7,39.2,99,87,57,29.91,29.63,7,2,10,0.06
2013-9-9,67.7,52.5,39.0,46.7,42.0,37.7,95,71,40,30.04,29.89,4,2,9,0.00
2013-9-10,69.2,60.1,50.9,56.5,51.8,46.2,94,75,56,30.04,29.95,2,1,5,0.05
2013-9-11,73.4,64.5,57.8,71.6,64.0,57.1,100,98,93,30.00,29.78,1,0,5,0.85
2013-9-12,68.7,64.3,59.9,68.4,64.2,59.9,100,100,97,29.84,29.55,1,0,3,0.26
2013-9-13,65.5,61.4,55.3,65.5,59.7,54.4,100,94,83,29.71,29.52,3,1,9,0.11
2013-9-14,54.9,49.9,42.2,54.3,49.1,41.9,100,97,92,29.93,29.71,3,1,9,0.23
2013-9-15,64.7,51.4,43.0,54.7,48.4,42.7,100,91,56,29.98,29.86,5,1,8,0.00
2013-9-16,55.8,46.2,35.8,53.2,41.6,34.1,97,85,63,30.19,29.86,5,2,10,0.19
2013-9-17,63.3,47.7,32.2,45.4,39.7,31.7,100,77,45,30.31,30.16,5,1,5,0.01
2013-9-18,70.9,53.8,40.3,48.8,43.8,39.3,97,73,37,30.15,29.96,4,1,7,0.00
2013-9-19,73.9,54.4,36.3,55.7,47.5,35.9,100,81,44,30.03,29.93,3,1,5,0.00
2013-9-20,65.8,56.4,49.0,60.1,54.0,48.5,100,92,77,30.08,30.00,2,0,4,0.00
2013-9-21,73.2,61.3,53.3,57.9,53.4,49.1,98,78,43,30.00,29.68,7,3,8,0.00
2013-9-22,67.9,59.4,48.5,62.6,57.3,47.1,99,93,81,29.67,29.49,6,2,9,1.11
2013-9-23,48.0,45.3,43.7,46.9,44.1,42.8,97,96,93,29.77,29.65,5,3,9,0.18
2013-9-24,52.6,46.7,42.5,48.4,44.9,41.9,99,94,84,29.83,29.71,4,3,8,0.18
2013-9-25,56.3,48.9,42.2,48.8,45.7,41.4,97,89,76,29.96,29.82,5,2,7,0.00
2013-9-26,60.3,51.4,42.2,52.7,48.3,41.7,100,90,76,30.14,29.96,4,1,7,0.00
2013-9-27,70.6,54.5,42.3,54.3,48.3,41.8,100,83,47,30.24,30.14,4,1,7,0.00
2013-9-28,75.5,53.3,38.0,56.1,47.4,37.7,100,84,46,30.33,30.19,2,0,5,0.00
2013-9-29,76.8,54.7,39.1,54.5,48.1,38.8,100,82,43,30.19,30.04,1,0,3,0.01
2013-9-30,74.2,52.3,40.2,56.0,46.5,39.7,100,85,39,30.09,29.97,2,0,4,0.00
2013-10-1,74.0,52.7,37.4,53.4,45.4,37.0,100,81,37,29.98,29.77,2,0,5,0.00
2013-10-2,73.4,56.9,40.8,58.8,47.3,40.3,100,74,39,29.77,29.58,5,2,6,0.00
2013-10-3,65.1,54.7,45.8,46.0,43.0,40.5,85,66,44,29.94,29.76,7,2,11,0.00
2013-10-4,57.5,47.4,36.8,42.1,38.9,35.5,96,75,49,30.09,29.92,6,2,7,0.00
2013-10-5,56.5,40.3,32.9,40.5,34.6,31.1,100,83,44,30.19,30.06,4,1,19,0.00
2013-10-6,58.6,42.8,28.5,40.6,33.8,27.8,99,74,40,30.29,30.18,1,0,2,0.01
2013-10-7,63.7,52.1,43.3,62.8,49.8,40.0,98,92,79,30.17,29.63,7,4,16,0.30
2013-10-8,56.7,50.1,39.1,55.3,41.6,34.5,98,75,47,30.30,29.67,7,3,11,0.13
2013-10-9,64.2,47.2,30.1,44.2,38.8,29.4,99,75,44,30.43,30.25,4,1,5,0.00
2013-10-10,72.6,51.6,34.1,50.6,43.7,33.3,99,78,43,30.25,30.13,2,0,6,0.00
2013-10-11,71.0,52.5,39.8,55.4,47.7,39.5,100,86,55,30.27,30.14,3,0,3,0.00
2013-10-12,59.1,47.2,38.0,47.3,43.5,37.0,99,88,59,30.41,30.27,2,0,3,0.00
2013-10-13,61.8,41.1,29.8,47.5,37.4,29.3,100,89,55,30.46,30.31,2,0,6,0.00
2013-10-14,51.6,43.5,31.6,51.6,43.3,31.1,100,99,97,30.31,30.18,2,0,4,0.10
2013-10-15,58.3,47.0,34.2,51.5,41.3,33.6,100,83,44,30.29,30.21,2,0,5,0.00
2013-10-16,55.0,46.2,32.1,52.3,44.7,31.6,100,95,87,30.21,29.89,3,1,4,0.00
2013-10-17,61.5,54.1,47.3,56.0,51.7,45.7,100,92,72,29.88,29.65,3,1,6,0.09
2013-10-18,54.2,47.9,42.0,52.5,47.2,41.5,100,98,92,29.68,29.57,3,0,4,0.28
2013-10-19,56.6,48.4,42.4,46.3,41.2,39.4,97,78,54,29.79,29.63,4,1,7,0.01
2013-10-20,48.8,45.1,41.4,47.7,42.9,36.6,100,92,71,29.74,29.58,5,1,9,0.30
2013-10-21,53.2,42.3,37.1,41.2,37.6,35.3,97,84,61,29.96,29.74,3,1,7,0.01
2013-10-22,50.9,44.8,39.8,50.1,44.0,39.2,100,97,92,29.95,29.59,7,2,10,0.35
2013-10-23,45.2,36.9,30.9,37.7,33.8,29.9,99,89,70,29.67,29.55,3,1,7,0.01
2013-10-24,39.7,35.1,30.7,32.7,29.5,25.4,97,81,58,29.56,29.47,6,2,11,0.01
2013-10-25,46.6,38.6,33.8,36.2,33.8,32.0,95,83,60,29.91,29.57,5,2,10,0.00
2013-10-26,44.6,35.5,29.8,34.9,30.5,27.1,97,83,51,29.98,29.80,4,1,8,0.06
2013-10-27,44.4,39.3,36.0,40.8,37.2,35.2,97,92,83,29.81,29.69,4,1,6,0.02
2013-10-28,36.8,33.1,27.3,35.0,31.2,25.5,97,93,83,30.25,29.82,3,1,5,0.07
2013-10-29,33.9,27.9,22.8,26.7,23.9,20.7,96,85,68,30.38,30.26,4,1,13,0.02
2013-10-30,38.4,29.3,21.6,27.5,24.4,20.1,94,82,64,30.31,30.10,4,1,16,0.02
2013-10-31,45.1,35.7,23.8,44.8,31.9,22.6,99,86,71,30.15,29.64,6,2,9,0.37
2013-11-1,62.2,55.7,46.6,59.9,53.4,45.3,99,93,66,29.62,29.02,7,5,23,0.33
2013-11-2,45.4,38.6,30.7,38.3,31.8,21.7,89,76,69,29.84,29.52,4,2,7,0.00
2013-11-3,36.8,29.2,22.0,21.4,18.6,14.1,88,65,47,30.37,29.84,5,2,9,0.00
2013-11-4,37.3,27.0,17.1,21.6,18.5,14.9,91,71,48,30.70,30.39,5,1,5,0.00
2013-11-5,39.2,28.1,15.0,27.7,21.2,13.3,95,77,49,30.72,30.41,4,1,8,0.00
2013-11-6,49.4,41.3,34.1,42.5,34.3,27.7,89,76,60,30.41,29.78,5,2,12,0.00
2013-11-7,50.9,42.9,31.3,50.1,41.2,27.6,98,93,83,29.75,29.50,7,3,10,0.25
2013-11-8,38.6,33.5,28.9,30.3,27.5,24.9,92,79,60,29.70,29.60,5,1,8,0.00
2013-11-9,32.7,31.1,29.3,29.2,24.6,22.5,95,77,69,30.05,29.71,7,3,13,0.00
2013-11-10,32.6,30.2,26.9,30.3,27.3,23.0,98,89,74,30.04,29.69,3,0,3,0.03
2013-11-11,33.3,31.4,30.1,30.7,29.4,28.7,97,92,84,29.88,29.70,4,1,9,0.05
2013-11-12,32.7,26.1,20.6,31.5,21.7,16.0,97,84,68,29.88,29.69,5,3,14,0.01
2013-11-13,31.3,24.2,19.1,18.8,15.7,14.2,86,70,50,30.04,29.90,8,3,15,0.00
2013-11-14,36.0,30.8,19.6,31.2,26.3,15.3,87,83,80,29.96,29.81,4,2,13,0.00
2013-11-15,45.1,38.0,32.2,33.4,32.0,29.9,93,80,61,30.13,29.96,5,2,11,0.11
2013-11-16,47.8,36.8,26.6,37.0,31.5,25.6,96,83,55,30.33,30.14,1,0,5,0.00
2013-11-17,49.0,33.8,21.5,40.2,31.2,20.3,98,91,57,30.34,30.02,4,1,7,0.17
2013-11-18,51.7,45.2,40.0,50.6,42.9,33.4,100,92,68,30.00,29.31,5,2,14,0.83
2013-11-19,41.1,33.2,27.6,33.7,24.5,16.4,87,70,62,29.98,29.41,8,5,23,0.00
2013-11-20,29.8,24.3,19.4,15.6,9.8,6.6,81,54,37,30.60,30.02,9,4,15,0.00
2013-11-21,42.2,26.0,15.2,20.8,16.9,9.0,94,72,26,30.60,30.32,2,0,9,0.00
2013-11-22,37.8,29.5,21.7,28.1,23.4,17.8,92,79,49,30.31,29.70,2,0,6,0.00
2013-11-23,32.4,27.3,17.8,31.9,23.0,12.7,98,84,71,29.67,29.44,8,3,24,0.00
2013-11-24,18.4,17.3,15.8,13.0,11.1,9.4,84,77,69,29.63,29.39,9,6,27,0.00
2013-11-25,20.9,17.2,14.6,12.7,8.3,5.5,87,68,56,30.19,29.65,9,5,17,0.00
2013-11-26,32.0,24.7,16.0,25.6,21.0,13.1,91,86,76,30.28,30.15,3,1,8,0.00
2013-11-27,49.3,37.2,26.2,49.3,36.4,23.0,100,97,85,30.22,29.10,4,2,13,1.56
2013-11-28,34.5,24.3,14.1,34.0,21.9,10.9,98,90,82,30.19,29.16,7,3,23,0.03
2013-11-29,19.8,12.8,8.4,11.7,9.0,5.6,93,85,66,30.66,30.20,4,1,14,0.00
2013-11-30,18.9,13.0,1.8,14.9,8.6,-0.7,94,83,64,30.77,30.44,2,0,8,0.00
2013-12-1,29.6,22.6,15.5,24.2,19.8,13.8,94,89,77,30.42,30.22,2,0,4,0.02
2013-12-2,29.4,25.9,16.7,28.9,24.9,15.5,98,96,94,30.23,30.00,0,0,2,0.00
2013-12-3,34.2,32.5,29.6,33.7,32.1,29.1,99,98,97,29.99,29.83,3,0,6,0.01
2013-12-4,32.8,31.2,27.7,32.3,29.5,25.2,98,94,89,30.19,29.80,6,4,19,0.00
2013-12-5,37.5,29.3,25.8,37.2,27.7,23.9,99,94,89,30.25,29.81,4,1,18,0.00
2013-12-6,41.0,36.0,29.1,40.3,30.6,18.8,100,81,62,29.95,29.76,7,2,15,0.01
2013-12-7,28.5,22.6,16.3,16.7,12.6,11.1,81,65,54,30.23,29.98,7,3,12,0.00
2013-12-8,20.4,13.2,5.2,11.5,7.1,1.4,90,77,60,30.57,30.23,4,1,8,0.00
2013-12-9,16.1,9.0,-1.9,14.4,6.4,-4.5,93,89,80,30.57,29.83,3,1,5,0.00
2013-12-10,27.7,18.2,8.0,23.2,15.5,5.1,94,89,80,29.80,29.66,7,1,10,0.00
2013-12-11,18.2,9.2,-2.9,11.4,4.4,-5.6,90,81,67,30.05,29.75,4,1,6,0.00
2013-12-12,0.9,-5.2,-11.6,-4.9,-9.9,-15.1,86,80,67,30.18,29.95,3,1,6,0.00
2013-12-13,8.2,-0.7,-8.4,1.8,-5.3,-12.8,88,80,66,30.32,29.82,5,1,13,0.00
2013-12-14,1.5,-7.2,-12.2,-7.3,-12.2,-16.6,86,79,62,30.63,30.33,4,1,4,0.00
2013-12-15,13.5,4.7,-5.5,11.6,1.9,-8.6,92,88,83,30.57,29.58,2,0,7,0.00
2013-12-16,12.8,8.2,-2.2,9.8,5.3,-5.6,92,88,85,30.06,29.58,4,1,8,0.00
2013-12-17,8.9,-3.1,-10.4,2.9,-6.8,-14.1,89,84,76,30.29,30.07,1,0,3,0.00
2013-12-18,16.2,6.9,-3.6,11.9,4.0,-6.7,94,88,83,30.22,29.83,1,0,1,0.00
2013-12-19,16.8,8.2,-5.7,14.1,5.7,-8.8,93,89,84,30.08,29.83,2,0,3,0.00
2013-12-20,10.0,6.2,-1.3,7.8,3.7,-4.0,91,89,86,30.23,30.09,1,0,2,0.00
2013-12-21,18.4,14.3,9.2,16.5,12.2,7.1,93,91,90,30.13,29.90,2,0,3,0.00
2013-12-22,15.7,14.3,12.5,13.3,12.1,10.4,92,91,88,30.20,30.12,3,1,6,0.00
2013-12-23,19.4,17.2,12.1,18.2,15.8,10.1,95,94,91,30.21,30.05,0,0,3,0.00
2013-12-24,19.8,16.4,11.8,18.6,14.2,9.5,96,91,85,30.12,30.04,3,1,7,0.00
2013-12-25,12.2,2.6,-13.1,10.1,-1.2,-16.6,91,84,72,30.54,30.10,3,1,10,0.00
2013-12-26,11.7,0.5,-12.1,9.8,-2.2,-15.3,92,88,84,30.52,30.18,0,0,0,0.00
2013-12-27,17.5,5.6,-7.5,14.6,3.0,-10.6,93,89,84,30.14,30.03,1,0,3,0.00
2013-12-28,28.2,18.9,2.3,25.4,16.5,0.0,93,90,89,30.07,29.78,5,2,9,0.00
2013-12-29,14.4,6.0,3.6,10.7,2.4,-0.3,91,85,74,30.18,29.74,3,1,14,0.00
2013-12-30,16.6,9.0,-10.0,14.2,6.4,-13.3,93,89,83,30.08,29.58,5,1,5,0.00
2013-12-31,0.1,-5.6,-11.2,-6.2,-9.5,-14.5,87,83,74,30.16,30.06,2,0,7,0.00
2014-1-1,2.6,-9.8,-20.5,-3.2,-14.2,-24.3,87,80,72,30.47,30.06,4,1,8,0.00
2014-1-2,-13.4,-19.7,-30.7,-20.9,-25.0,-34.9,81,76,64,30.57,30.34,3,0,4,0.00